Time;durP1;ratioP1;P1;durP2;ratioP2;P2;SDS_P1;SDS_P2;PMS_P1;PMS_P2;Temp;Humidity;BMP_temperature;BMP_pressure;BME280_temperature;BME280_humidity;BME280_pressure;Samples;Min_cycle;Max_cycle;Signal;HPM_P1;HPM_P2
2021/11/10 13:52:36;;;;;;;4.42;2.77;;;;;;;8.50;36.01;100946.36;1786534;79;23399;-70
2021/11/10 13:55:06;;;;;;;23.20;3.50;;;;;;;8.44;35.98;100951.42;1791220;80;20883;-70
2021/11/10 13:57:38;;;;;;;3.27;2.67;;;;;;;8.31;36.05;100948.80;1791160;79;21377;-71
2021/11/10 14:00:14;;;;;;;14.20;3.12;;;;;;;8.16;36.19;100949.21;1790983;80;20926;-71
2021/11/10 14:02:45;;;;;;;5.62;2.27;;;;;;;8.02;36.34;100956.14;1791326;79;20915;-71
2021/11/10 14:05:15;;;;;;;6.78;3.10;;;;;;;7.84;36.49;100952.06;1791194;80;20900;-71
2021/11/10 14:07:44;;;;;;;4.45;2.30;;;;;;;7.67;36.68;100962.84;1791243;79;21414;-72
2021/11/10 14:10:22;;;;;;;5.05;2.72;;;;;;;7.54;36.89;100946.64;1791241;80;21075;-72
2021/11/10 14:12:57;;;;;;;2.95;2.30;;;;;;;7.49;37.12;100953.46;1791072;79;21464;-70
2021/11/10 14:15:34;;;;;;;17.55;3.45;;;;;;;7.43;37.29;100948.42;1791206;79;20938;-70
2021/11/10 14:18:06;;;;;;;9.50;2.67;;;;;;;7.39;37.46;100949.16;1791302;80;20990;-72
2021/11/10 14:20:41;;;;;;;10.55;2.87;;;;;;;7.33;37.62;100939.33;1791399;79;21484;-71
2021/11/10 14:23:29;;;;;;;16.02;3.20;;;;;;;7.25;37.75;100940.37;1791171;79;21524;-71
2021/11/10 14:26:10;;;;;;;3.60;2.60;;;;;;;7.16;37.87;100937.84;1789592;79;20934;-69
2021/11/10 14:28:47;;;;;;;8.00;3.05;;;;;;;7.05;38.05;100936.11;1781127;80;21525;-70
2021/11/10 14:31:21;;;;;;;11.35;3.15;;;;;;;6.94;38.17;100935.72;1780820;79;21440;-72
2021/11/10 14:33:58;;;;;;;5.37;2.83;;;;;;;6.82;38.40;100927.39;1783281;79;21231;-71
2021/11/10 14:36:27;;;;;;;6.45;3.22;;;;;;;6.73;38.58;100933.61;1785084;80;21074;-71
2021/11/10 14:38:56;;;;;;;15.43;4.10;;;;;;;6.67;38.70;100933.80;1754012;81;20844;-72
2021/11/10 14:41:51;;;;;;;11.03;4.55;;;;;;;6.59;38.83;100933.47;1742667;80;20959;-71
2021/11/10 14:44:16;;;;;;;8.43;4.17;;;;;;;6.51;39.00;100941.05;1779729;80;20970;-71
2021/11/10 14:46:43;;;;;;;16.97;5.75;;;;;;;6.45;39.12;100946.05;1752005;81;21469;-72
2021/11/10 14:49:17;;;;;;;32.55;6.35;;;;;;;6.39;39.28;100949.75;1750184;81;21378;-70
2021/11/10 14:52:05;;;;;;;22.87;6.08;;;;;;;6.34;39.44;100951.70;1760323;81;21382;-70
2021/11/10 14:54:50;;;;;;;15.78;6.00;;;;;;;6.26;39.87;100949.68;1758546;81;20940;-71
2021/11/10 14:57:14;;;;;;;26.37;9.18;;;;;;;6.17;40.17;100960.21;1749729;81;21498;-74
2021/11/10 14:59:45;;;;;;;19.95;9.10;;;;;;;6.08;40.36;100954.56;1735814;81;20891;-69
2021/11/10 15:02:24;;;;;;;29.50;10.98;;;;;;;5.98;40.46;100958.13;1777379;80;21993;-71
2021/11/10 15:05:06;;;;;;;22.25;8.98;;;;;;;5.89;40.66;100956.82;1757362;80;21847;-71
2021/11/10 15:07:40;;;;;;;22.73;8.60;;;;;;;5.80;40.92;100956.44;1765918;81;21422;-71
2021/11/10 15:10:23;;;;;;;20.08;8.43;;;;;;;5.72;41.18;100956.53;1750133;81;20931;-71
2021/11/10 15:13:11;;;;;;;37.53;11.50;;;;;;;5.64;41.45;100958.38;1751309;82;21430;-71
2021/11/10 15:15:43;;;;;;;20.60;7.80;;;;;;;5.57;41.67;100962.87;1750287;81;21146;-71
2021/11/10 15:18:14;;;;;;;16.37;6.83;;;;;;;5.50;41.86;100954.28;1757682;81;26527;-72
2021/11/10 15:20:44;;;;;;;13.50;5.95;;;;;;;5.43;42.09;100956.58;1760617;81;20893;-71
2021/11/10 15:23:17;;;;;;;10.95;5.95;;;;;;;5.33;42.29;100961.83;1760898;81;20929;-71
2021/11/10 15:25:44;;;;;;;33.50;7.05;;;;;;;5.26;42.53;100963.28;1760710;81;20910;-71
2021/11/10 15:28:16;;;;;;;80.28;9.73;;;;;;;5.19;42.71;100964.22;1760055;81;21158;-69
2021/11/10 15:30:48;;;;;;;19.00;8.38;;;;;;;5.11;42.93;100957.34;1760707;81;20874;-72
2021/11/10 15:33:17;;;;;;;23.92;8.03;;;;;;;5.05;43.17;100948.81;1755686;81;21038;-69
2021/11/10 15:35:50;;;;;;;23.77;9.48;;;;;;;5.00;43.31;100959.89;1748816;81;21420;-72
2021/11/10 15:38:24;;;;;;;17.95;9.28;;;;;;;4.93;43.45;100967.88;1759343;80;21008;-73
2021/11/10 15:40:58;;;;;;;29.63;10.32;;;;;;;4.89;43.58;100968.98;1749276;80;21159;-73
2021/11/10 15:43:26;;;;;;;19.82;9.58;;;;;;;4.82;43.73;100964.30;1761392;80;21162;-73
2021/11/10 15:45:59;;;;;;;29.02;9.83;;;;;;;4.76;43.88;100954.86;1756392;80;21030;-72
2021/11/10 15:48:29;;;;;;;16.52;8.43;;;;;;;4.71;44.07;100954.62;1762978;80;20943;-72
2021/11/10 15:50:59;;;;;;;18.32;8.73;;;;;;;4.64;44.26;100947.32;1756959;81;21032;-72
2021/11/10 15:53:50;;;;;;;23.22;9.53;;;;;;;4.57;44.42;100952.67;1748547;81;21611;-73
2021/11/10 15:56:21;;;;;;;13.98;7.90;;;;;;;4.50;44.61;100944.07;1767416;80;21005;-73
2021/11/10 15:58:49;;;;;;;25.35;10.23;;;;;;;4.45;44.79;100953.83;1766979;80;20997;-71
2021/11/10 16:01:19;;;;;;;30.60;10.18;;;;;;;4.39;45.02;100951.82;1767326;80;20946;-73
2021/11/10 16:03:48;;;;;;;69.32;19.82;;;;;;;4.35;45.28;100949.89;1757330;80;21031;-74
2021/11/10 16:06:17;;;;;;;107.55;26.45;;;;;;;4.29;45.48;100959.63;1752511;80;21160;-72
2021/11/10 16:08:46;;;;;;;44.98;17.82;;;;;;;4.24;45.68;100954.98;1732128;80;20927;-72
2021/11/10 16:11:16;;;;;;;61.65;19.07;;;;;;;4.18;45.94;100956.89;1759379;80;20959;-73
2021/11/10 16:13:49;;;;;;;40.38;16.85;;;;;;;4.15;46.09;100971.52;1751748;80;21015;-73
2021/11/10 16:16:24;;;;;;;39.08;15.78;;;;;;;4.10;46.21;100972.59;1759581;80;20931;-74
2021/11/10 16:18:52;;;;;;;30.05;14.55;;;;;;;4.06;46.42;100968.05;1756412;80;21134;-73
2021/11/10 16:21:24;;;;;;;36.03;14.05;;;;;;;4.02;46.59;100973.53;1755597;80;21003;-70
2021/11/10 16:23:59;;;;;;;30.27;13.25;;;;;;;3.99;46.67;100969.47;1762921;80;20999;-72
2021/11/10 16:26:32;;;;;;;129.90;16.90;;;;;;;3.95;46.82;100971.44;1772666;80;21002;-73
2021/11/10 16:29:03;;;;;;;54.50;13.38;;;;;;;3.91;47.03;100973.42;1771410;80;21642;-72
2021/11/10 16:34:25;;;;;;;27.65;14.05;;;;;;;3.85;47.50;100962.67;1758809;80;21004;-71
2021/11/10 16:36:52;;;;;;;29.27;13.83;;;;;;;3.78;47.67;100964.09;1753270;80;20942;-72
2021/11/10 16:39:24;;;;;;;29.10;14.65;;;;;;;3.72;47.76;100961.13;1750219;80;21027;-72
2021/11/10 16:42:04;;;;;;;66.15;14.78;;;;;;;3.67;47.87;100963.92;1755580;80;20981;-73
2021/11/10 16:44:33;;;;;;;59.60;14.78;;;;;;;3.64;48.11;100961.57;1753595;80;21186;-73
2021/11/10 16:47:01;;;;;;;26.80;13.98;;;;;;;3.58;48.31;100956.05;1748559;81;21669;-70
2021/11/10 16:49:31;;;;;;;28.75;14.38;;;;;;;3.55;48.47;100959.80;1756849;80;21039;-73
2021/11/10 16:52:01;;;;;;;34.20;14.70;;;;;;;3.50;48.59;100956.06;1763573;80;21120;-74
2021/11/10 16:54:29;;;;;;;28.12;15.15;;;;;;;3.46;48.76;100958.93;1759664;80;21620;-75
2021/11/10 16:56:57;;;;;;;44.35;15.00;;;;;;;3.43;48.99;100947.93;1767623;80;21479;-73
2021/11/10 16:59:25;;;;;;;27.90;13.88;;;;;;;3.40;49.17;100946.88;1769407;80;20942;-73
2021/11/10 17:01:53;;;;;;;31.87;14.63;;;;;;;3.35;49.42;100937.52;1759827;80;20942;-73
2021/11/10 17:04:22;;;;;;;32.15;14.87;;;;;;;3.29;49.66;100934.97;1762171;80;20948;-72
2021/11/10 17:06:51;;;;;;;36.48;17.52;;;;;;;3.21;49.87;100928.06;1730546;83;20950;-73
2021/11/10 17:09:19;;;;;;;31.48;16.52;;;;;;;3.08;49.83;100925.23;1714284;81;21787;-73
2021/11/10 17:11:47;;;;;;;32.83;15.40;;;;;;;2.91;50.06;100919.95;1750399;81;20942;-71
2021/11/10 17:14:15;;;;;;;36.15;17.92;;;;;;;2.72;50.65;100925.47;1724953;81;21106;-72
2021/11/10 17:16:43;;;;;;;33.50;18.15;;;;;;;2.56;51.42;100934.58;1719530;81;21502;-71
2021/11/10 17:19:11;;;;;;;48.65;24.87;;;;;;;2.40;52.35;100930.66;1731269;81;21898;-72
2021/11/10 17:21:39;;;;;;;126.97;52.80;;;;;;;2.24;53.31;100936.69;1755157;81;21169;-72
2021/11/10 17:24:07;;;;;;;195.77;84.35;;;;;;;2.13;54.37;100937.40;1750860;81;20966;-72
2021/11/10 17:26:35;;;;;;;185.82;80.42;;;;;;;2.11;55.58;100937.72;1756328;81;20902;-74
2021/11/10 17:29:03;;;;;;;91.72;38.00;;;;;;;2.11;56.72;100938.13;1755632;81;20980;-66
2021/11/10 17:31:31;;;;;;;48.08;21.50;;;;;;;2.12;57.59;100935.61;1744889;80;20966;-69
2021/11/10 17:34:03;;;;;;;38.17;15.88;;;;;;;2.13;58.42;100927.39;1721888;83;21883;-76
2021/11/10 17:36:31;;;;;;;31.33;13.95;;;;;;;2.11;59.21;100927.71;1758627;80;21528;-73
2021/11/10 17:38:58;;;;;;;23.77;12.88;;;;;;;2.11;59.83;100927.30;1757144;80;21047;-74
2021/11/10 17:41:27;;;;;;;22.73;12.45;;;;;;;2.11;60.12;100929.02;1711853;82;20947;-76
2021/11/10 17:43:57;;;;;;;20.52;11.08;;;;;;;2.05;60.44;100921.77;1735257;81;20858;-77
2021/11/10 17:46:26;;;;;;;20.27;11.03;;;;;;;2.03;60.97;100932.90;1730572;82;21337;-76
2021/11/10 17:48:54;;;;;;;18.17;10.35;;;;;;;2.05;61.61;100935.18;1750606;80;20982;-75
2021/11/10 17:51:22;;;;;;;16.70;10.78;;;;;;;2.09;61.84;100931.94;1754459;80;21032;-76
2021/11/10 17:53:51;;;;;;;18.37;10.03;;;;;;;2.13;61.94;100932.59;1752739;80;20988;-71
2021/11/10 17:56:19;;;;;;;17.40;9.65;;;;;;;2.16;61.99;100931.06;1750355;80;21080;-76
2021/11/10 17:58:47;;;;;;;25.02;9.70;;;;;;;2.22;62.08;100927.91;1750968;81;20939;-73
2021/11/10 18:01:15;;;;;;;27.20;11.20;;;;;;;2.25;62.04;100925.47;1748347;81;21438;-74
2021/11/10 18:03:44;;;;;;;20.40;10.23;;;;;;;2.30;61.86;100933.13;1710326;83;20975;-74
2021/11/10 18:06:13;;;;;;;19.55;10.08;;;;;;;2.32;61.75;100927.59;1715260;83;20977;-73
2021/11/10 18:08:41;;;;;;;17.35;9.60;;;;;;;2.34;61.61;100918.16;1719899;83;21030;-76
2021/11/10 18:11:09;;;;;;;15.70;9.50;;;;;;;2.31;61.33;100912.78;1722205;80;21178;-74
2021/11/10 18:13:38;;;;;;;36.77;11.90;;;;;;;2.24;61.08;100913.66;1780798;80;20919;-74
2021/11/10 18:16:06;;;;;;;20.92;10.82;;;;;;;2.16;61.15;100919.75;1780157;80;21380;-74
2021/11/10 18:18:34;;;;;;;18.17;10.95;;;;;;;2.09;61.38;100924.13;1770146;80;20912;-75
2021/11/10 18:21:05;;;;;;;18.90;11.33;;;;;;;2.02;61.65;100914.19;1728458;83;20993;-76
2021/11/10 18:23:33;;;;;;;19.90;11.35;;;;;;;1.98;61.93;100906.61;1734882;81;21562;-74
2021/11/10 18:26:02;;;;;;;20.77;11.70;;;;;;;1.94;62.25;100903.75;1747185;81;20986;-75
2021/11/10 18:28:30;;;;;;;20.77;11.35;;;;;;;1.88;62.70;100888.66;1711331;82;20937;-72
2021/11/10 18:31:01;;;;;;;21.85;11.93;;;;;;;1.83;63.27;100889.70;1714264;82;21510;-75
2021/11/10 18:33:29;;;;;;;23.22;12.78;;;;;;;1.79;64.05;100880.34;1726659;82;21079;-72
2021/11/10 18:35:58;;;;;;;20.35;11.20;;;;;;;1.69;64.66;100866.33;1735674;82;21020;-73
2021/11/10 18:38:26;;;;;;;22.52;12.07;;;;;;;1.52;65.18;100879.27;1726804;82;20933;-72
2021/11/10 18:40:53;;;;;;;27.48;12.50;;;;;;;1.42;65.83;100882.16;1737746;82;20903;-71
2021/11/10 18:43:22;;;;;;;22.02;12.75;;;;;;;1.39;66.32;100885.84;1735292;82;20883;-67
2021/11/10 18:45:51;;;;;;;21.80;13.10;;;;;;;1.34;66.58;100883.38;1735708;82;20864;-72
2021/11/10 18:48:20;;;;;;;27.58;12.93;;;;;;;1.32;66.84;100882.39;1737995;82;21183;-73
2021/11/10 18:50:49;;;;;;;22.87;12.55;;;;;;;1.27;67.02;100881.23;1734119;82;20867;-72
2021/11/10 18:53:17;;;;;;;20.12;12.75;;;;;;;1.19;67.27;100889.88;1730160;82;20985;-73
2021/11/10 18:55:48;;;;;;;19.87;11.43;;;;;;;1.17;67.49;100874.60;1737252;81;21502;-75
2021/11/10 18:58:17;;;;;;;26.40;10.65;;;;;;;1.13;67.62;100871.33;1698755;82;21005;-69
2021/11/10 19:00:46;;;;;;;21.42;11.43;;;;;;;1.12;67.87;100869.94;1736590;82;21189;-73
2021/11/10 19:03:15;;;;;;;20.95;11.12;;;;;;;1.06;68.16;100873.08;1738097;82;21067;-74
2021/11/10 19:11:09;;;;;;;23.55;11.97;;;;;;;1.03;69.34;100869.41;1733811;82;20943;-74
2021/11/10 19:21:35;;;;;;;22.45;12.13;;;;;;;0.94;70.98;100856.73;1727167;82;21026;-72
2021/11/10 19:24:02;;;;;;;26.93;12.70;;;;;;;0.87;71.32;100849.38;1733949;82;20930;-73
2021/11/10 19:26:31;;;;;;;18.10;10.78;;;;;;;0.82;71.91;100844.31;1730341;82;21104;-74
2021/11/10 19:29:00;;;;;;;20.40;11.90;;;;;;;0.79;72.54;100846.33;1726891;82;20957;-74
2021/11/10 19:31:30;;;;;;;19.82;11.55;;;;;;;0.80;73.31;100840.33;1744190;80;20962;-75
2021/11/10 19:33:59;;;;;;;22.30;11.18;;;;;;;0.81;74.12;100839.52;1737119;82;21065;-73
2021/11/10 19:36:28;;;;;;;17.17;10.32;;;;;;;0.82;74.93;100844.31;1751621;80;20936;-74
2021/11/10 19:38:56;;;;;;;16.85;10.08;;;;;;;0.83;75.56;100840.91;1749871;80;21130;-72
2021/11/10 19:41:25;;;;;;;17.25;9.53;;;;;;;0.88;76.39;100848.57;1756732;80;20954;-75
2021/11/10 19:43:52;;;;;;;17.87;9.93;;;;;;;0.96;77.21;100851.25;1754960;80;21029;-72
2021/11/10 19:46:20;;;;;;;16.35;9.85;;;;;;;1.04;77.82;100850.00;1756087;80;21093;-71
2021/11/10 19:48:49;;;;;;;16.75;10.03;;;;;;;1.10;78.39;100839.96;1713289;83;21652;-72
2021/11/10 19:51:17;;;;;;;18.77;9.85;;;;;;;1.16;78.84;100831.62;1712311;83;21151;-73
2021/11/10 19:53:45;;;;;;;14.33;8.95;;;;;;;1.22;79.24;100834.58;1712009;83;20955;-73
2021/11/10 19:56:13;;;;;;;16.17;9.20;;;;;;;1.28;79.64;100843.13;1727869;82;21014;-70
2021/11/10 19:58:45;;;;;;;15.25;8.55;;;;;;;1.36;80.18;100849.27;1744729;81;21050;-73
2021/11/10 20:01:18;;;;;;;14.18;8.48;;;;;;;1.43;80.67;100837.14;1760437;81;21038;-73
2021/11/10 20:03:48;;;;;;;12.00;7.95;;;;;;;1.47;81.15;100835.20;1760824;81;21006;-72
2021/11/10 20:06:16;;;;;;;18.73;8.60;;;;;;;1.53;81.66;100848.95;1760719;81;21500;-72
2021/11/10 20:08:48;;;;;;;11.68;7.40;;;;;;;1.55;82.12;100838.23;1749827;81;21511;-73
2021/11/10 20:11:15;;;;;;;12.43;7.90;;;;;;;1.58;82.63;100838.00;1755470;81;21493;-74
2021/11/10 20:13:44;;;;;;;13.53;8.35;;;;;;;1.57;83.39;100825.81;1755355;81;20930;-74
2021/11/10 20:16:15;;;;;;;14.50;7.92;;;;;;;1.48;84.47;100817.49;1737356;81;21230;-73
2021/11/10 20:18:43;;;;;;;12.03;7.62;;;;;;;1.36;85.48;100818.06;1710184;82;20898;-74
2021/11/10 20:21:13;;;;;;;15.03;8.30;;;;;;;1.32;86.86;100818.70;1740903;81;20943;-74
2021/11/10 20:23:42;;;;;;;11.38;7.50;;;;;;;1.28;88.05;100820.63;1761459;81;21040;-74
2021/11/10 20:26:10;;;;;;;17.05;8.08;;;;;;;1.23;89.14;100817.77;1761609;81;20986;-75
2021/11/10 20:28:38;;;;;;;14.93;7.97;;;;;;;1.24;90.05;100826.46;1761857;81;21164;-75
2021/11/10 20:31:07;;;;;;;12.03;7.50;;;;;;;1.23;90.84;100821.67;1762274;81;20979;-75
2021/11/10 20:33:39;;;;;;;14.38;7.90;;;;;;;1.21;91.53;100819.79;1734331;81;21053;-74
2021/11/10 20:36:08;;;;;;;13.72;7.33;;;;;;;1.19;92.39;100817.51;1761568;81;20930;-74
2021/11/10 20:38:37;;;;;;;14.13;7.25;;;;;;;1.17;93.31;100805.72;1761459;81;21060;-75
2021/11/10 20:41:05;;;;;;;9.50;6.20;;;;;;;1.13;94.05;100810.25;1758302;81;21128;-74
2021/11/10 20:43:38;;;;;;;11.45;7.30;;;;;;;1.14;94.74;100802.95;1761273;81;21457;-73
2021/11/10 20:46:06;;;;;;;13.30;8.13;;;;;;;1.11;95.36;100805.37;1728677;81;20961;-74
2021/11/10 20:48:36;;;;;;;13.00;7.12;;;;;;;1.09;96.00;100804.79;1761123;81;20942;-73
2021/11/10 20:51:05;;;;;;;11.10;7.17;;;;;;;1.06;96.53;100804.20;1761456;81;20930;-73
2021/11/10 20:53:36;;;;;;;14.38;7.47;;;;;;;1.02;97.00;100800.94;1761415;81;21143;-74
2021/11/10 20:56:05;;;;;;;12.65;7.47;;;;;;;0.99;97.29;100797.27;1761155;81;20926;-74
2021/11/10 20:58:35;;;;;;;13.50;7.65;;;;;;;0.95;97.57;100785.80;1761175;81;20954;-74
2021/11/10 21:01:06;;;;;;;15.05;8.10;;;;;;;0.93;97.65;100792.58;1761026;81;20910;-73
2021/11/10 21:03:39;;;;;;;12.53;8.33;;;;;;;0.88;97.67;100803.11;1761435;81;20955;-75
2021/11/10 21:06:09;;;;;;;14.55;8.33;;;;;;;0.81;97.69;100808.34;1761206;81;21145;-73
2021/11/10 21:08:40;;;;;;;12.03;7.80;;;;;;;0.78;97.96;100812.06;1753019;81;21446;-74
2021/11/10 21:11:10;;;;;;;15.32;8.30;;;;;;;0.76;98.38;100808.48;1751323;81;21470;-75
2021/11/10 21:13:38;;;;;;;15.80;8.65;;;;;;;0.78;98.96;100809.87;1751113;81;21085;-74
2021/11/10 21:16:07;;;;;;;14.47;8.25;;;;;;;0.78;99.54;100806.87;1751209;82;20924;-75
2021/11/10 21:18:38;;;;;;;15.40;8.28;;;;;;;0.79;100.00;100810.36;1726568;82;22002;-75
2021/11/10 21:21:06;;;;;;;13.03;8.23;;;;;;;0.78;100.00;100811.16;1751669;82;20884;-75
2021/11/10 21:23:37;;;;;;;11.35;7.67;;;;;;;0.80;100.00;100808.26;1751565;81;20957;-75
2021/11/10 21:26:07;;;;;;;14.85;7.80;;;;;;;0.78;100.00;100807.27;1751495;82;21478;-72
2021/11/10 21:28:37;;;;;;;13.98;8.30;;;;;;;0.73;100.00;100808.70;1751221;82;20936;-72
2021/11/10 21:31:07;;;;;;;13.10;7.22;;;;;;;0.69;100.00;100805.02;1750987;82;21136;-73
2021/11/10 21:33:37;;;;;;;12.28;7.47;;;;;;;0.65;100.00;100797.86;1751064;82;20966;-73
2021/11/10 21:36:18;;;;;;;11.60;7.08;;;;;;;0.57;100.00;100801.30;1751230;82;21410;-74
2021/11/10 21:38:47;;;;;;;13.20;6.85;;;;;;;0.53;100.00;100795.83;1751554;81;21004;-75
2021/11/10 21:41:23;;;;;;;10.53;6.30;;;;;;;0.50;100.00;100784.86;1750773;81;21084;-74
2021/11/10 21:43:50;;;;;;;11.00;6.72;;;;;;;0.44;100.00;100780.97;1750865;82;22009;-73
2021/11/10 21:46:22;;;;;;;13.98;7.10;;;;;;;0.36;100.00;100782.21;1751283;81;20964;-72
2021/11/10 21:48:51;;;;;;;9.88;6.67;;;;;;;0.29;100.00;100780.55;1751211;81;21655;-74
2021/11/10 21:51:21;;;;;;;10.48;6.70;;;;;;;0.24;100.00;100783.67;1751289;82;21008;-74
2021/11/10 21:53:52;;;;;;;11.83;6.92;;;;;;;0.20;100.00;100781.28;1751530;81;21011;-74
2021/11/10 21:56:23;;;;;;;9.73;6.67;;;;;;;0.15;100.00;100781.81;1750124;81;21501;-74
2021/11/10 21:58:55;;;;;;;9.65;6.75;;;;;;;0.11;100.00;100780.73;1751058;81;21083;-74
2021/11/10 22:01:23;;;;;;;9.23;6.30;;;;;;;0.10;100.00;100770.25;1751377;82;20996;-74
2021/11/10 22:04:00;;;;;;;8.18;5.85;;;;;;;0.10;100.00;100776.73;1751534;82;21472;-75
2021/11/10 22:06:28;;;;;;;10.68;6.85;;;;;;;0.12;100.00;100767.35;1754566;81;21122;-73
2021/11/10 22:09:03;;;;;;;9.13;6.47;;;;;;;0.10;100.00;100763.77;1761474;81;21918;-73
2021/11/10 22:11:33;;;;;;;13.75;6.90;;;;;;;0.02;100.00;100762.00;1761017;81;20917;-73
2021/11/10 22:14:04;;;;;;;11.90;7.22;;;;;;;-0.05;100.00;100757.20;1760441;81;22291;-74
2021/11/10 22:16:34;;;;;;;10.70;6.85;;;;;;;-0.11;100.00;100755.14;1761034;81;21543;-73
2021/11/10 22:19:03;;;;;;;9.23;6.67;;;;;;;-0.16;100.00;100761.73;1761552;81;21125;-73
2021/11/10 22:21:32;;;;;;;10.98;7.05;;;;;;;-0.18;100.00;100763.73;1761078;81;21154;-74
2021/11/10 22:24:03;;;;;;;12.90;7.33;;;;;;;-0.21;100.00;100764.84;1760952;81;21494;-72
2021/11/10 22:26:31;;;;;;;9.80;6.22;;;;;;;-0.20;100.00;100759.75;1761064;81;21059;-74
2021/11/10 22:29:00;;;;;;;11.33;7.03;;;;;;;-0.20;100.00;100758.86;1761040;81;21054;-73
2021/11/10 22:31:30;;;;;;;10.15;6.08;;;;;;;-0.21;100.00;100753.17;1760867;81;21050;-73
2021/11/10 22:34:00;;;;;;;9.75;6.42;;;;;;;-0.27;100.00;100754.98;1729367;83;21088;-73
2021/11/10 22:36:29;;;;;;;10.85;6.20;;;;;;;-0.28;100.00;100758.38;1760839;81;21547;-73
2021/11/10 22:39:02;;;;;;;9.08;6.05;;;;;;;-0.28;100.00;100751.91;1760974;81;20983;-73
2021/11/10 22:41:32;;;;;;;10.70;6.72;;;;;;;-0.29;100.00;100750.11;1760921;81;21488;-73
2021/11/10 22:44:04;;;;;;;10.10;6.17;;;;;;;-0.25;100.00;100743.41;1761305;81;20938;-73
2021/11/10 22:46:35;;;;;;;9.40;6.60;;;;;;;-0.25;100.00;100743.02;1760080;81;20921;-74
2021/11/10 22:49:05;;;;;;;10.03;6.60;;;;;;;-0.25;100.00;100738.23;1761945;81;20917;-75
2021/11/10 22:51:36;;;;;;;10.50;6.50;;;;;;;-0.27;100.00;100736.84;1761621;81;21118;-74
2021/11/10 22:54:09;;;;;;;12.63;6.65;;;;;;;-0.30;100.00;100741.84;1761663;81;21238;-74
2021/11/10 22:56:38;;;;;;;8.50;6.03;;;;;;;-0.34;100.00;100733.37;1761505;81;21036;-72
2021/11/10 22:59:08;;;;;;;10.88;6.60;;;;;;;-0.41;100.00;100723.02;1749573;81;21097;-74
2021/11/10 23:01:40;;;;;;;9.78;6.42;;;;;;;-0.47;100.00;100717.45;1750436;82;21008;-74
2021/11/10 23:04:11;;;;;;;11.65;6.87;;;;;;;-0.47;100.00;100714.86;1725949;82;21480;-73
2021/11/10 23:06:42;;;;;;;11.05;6.50;;;;;;;-0.46;100.00;100707.98;1749575;82;21001;-73
2021/11/10 23:09:11;;;;;;;13.70;6.72;;;;;;;-0.49;100.00;100716.43;1733243;82;20991;-73
2021/11/10 23:11:53;;;;;;;11.78;7.03;;;;;;;-0.49;100.00;100718.13;1708224;84;21162;-72
2021/11/10 23:14:22;;;;;;;11.38;6.17;;;;;;;-0.46;100.00;100715.36;1707912;84;20954;-71
2021/11/10 23:16:50;;;;;;;9.55;5.97;;;;;;;-0.48;100.00;100713.44;1707930;84;21056;-73
2021/11/10 23:19:21;;;;;;;10.08;6.45;;;;;;;-0.55;100.00;100708.67;1707986;84;21056;-73
2021/11/10 23:21:50;;;;;;;10.23;6.80;;;;;;;-0.64;100.00;100703.80;1705793;83;21567;-73
2021/11/10 23:24:18;;;;;;;10.93;5.70;;;;;;;-0.70;100.00;100700.43;1723617;83;21505;-73
2021/11/10 23:26:47;;;;;;;8.65;6.10;;;;;;;-0.76;100.00;100691.37;1706559;83;20909;-73
2021/11/10 23:29:15;;;;;;;9.08;6.45;;;;;;;-0.85;100.00;100692.98;1726042;83;20962;-73
2021/11/10 23:31:46;;;;;;;10.00;6.67;;;;;;;-0.88;100.00;100690.20;1695488;83;21451;-74
2021/11/10 23:34:18;;;;;;;9.85;6.95;;;;;;;-0.90;100.00;100689.20;1725407;83;20838;-74
2021/11/10 23:36:46;;;;;;;12.13;6.83;;;;;;;-0.92;100.00;100689.91;1716404;83;21120;-74
2021/11/10 23:39:15;;;;;;;10.95;7.10;;;;;;;-0.97;100.00;100681.41;1725214;83;20963;-73
2021/11/10 23:41:44;;;;;;;9.60;6.45;;;;;;;-0.97;100.00;100683.11;1719450;83;20919;-73
2021/11/10 23:44:16;;;;;;;11.85;7.03;;;;;;;-0.97;100.00;100679.22;1753284;81;21437;-71
2021/11/10 23:46:45;;;;;;;10.20;6.53;;;;;;;-0.97;100.00;100679.22;1729021;82;20921;-71
2021/11/10 23:49:14;;;;;;;11.00;7.00;;;;;;;-0.96;100.00;100678.42;1726120;82;21162;-71
2021/11/10 23:51:42;;;;;;;8.73;5.92;;;;;;;-0.94;100.00;100671.68;1725959;83;20977;-72
2021/11/10 23:54:14;;;;;;;10.90;6.85;;;;;;;-0.91;100.00;100668.39;1726087;82;21032;-72
2021/11/10 23:56:44;;;;;;;11.08;6.72;;;;;;;-0.92;100.00;100665.30;1739511;82;21524;-71
2021/11/10 23:59:14;;;;;;;11.43;7.20;;;;;;;-0.93;100.00;100670.88;1756359;81;20961;-71
